Time;durP1;ratioP1;P1;durP2;ratioP2;P2;SDS_P1;SDS_P2;PMS_P1;PMS_P2;Temp;Humidity;BMP_temperature;BMP_pressure;BME280_temperature;BME280_humidity;BME280_pressure;Samples;Min_cycle;Max_cycle;Signal;HPM_P1;HPM_P2
2023/03/28 00:02:24;;;;;;;;;;;;;;;9.19;72.02;99140.42;107672;1253;107956;-62
2023/03/28 00:04:52;;;;;;;;;;;;;;;9.17;72.23;99134.20;107613;1253;97804;-60
2023/03/28 00:07:21;;;;;;;;;;;;;;;9.13;74.00;99177.20;107706;1254;97721;-61
2023/03/28 00:09:50;;;;;;;;;;;;;;;8.85;73.04;99219.20;107691;1255;112423;-63
2023/03/28 00:12:18;;;;;;;;;;;;;;;8.24;69.73;99212.29;107629;1254;109058;-61
2023/03/28 00:14:47;;;;;;;;;;;;;;;7.73;69.42;99219.73;107529;1254;108343;-61
2023/03/28 00:17:16;;;;;;;;;;;;;;;7.23;69.11;99231.67;107607;1251;97820;-62
2023/03/28 00:19:45;;;;;;;;;;;;;;;6.92;70.25;99233.68;107695;1254;98379;-61
2023/03/28 00:22:14;;;;;;;;;;;;;;;6.71;70.79;99236.96;107647;1253;111766;-61
2023/03/28 00:24:43;;;;;;;;;;;;;;;6.52;70.97;99239.88;107630;1253;109153;-62
2023/03/28 00:27:12;;;;;;;;;;;;;;;6.37;71.55;99251.06;107628;1252;107986;-61
2023/03/28 00:29:40;;;;;;;;;;;;;;;6.19;71.61;99253.27;107589;1253;98276;-60
2023/03/28 00:32:09;;;;;;;;;;;;;;;6.04;71.47;99255.73;107671;1252;97944;-62
2023/03/28 00:34:37;;;;;;;;;;;;;;;5.91;71.39;99263.13;107729;1254;110637;-62
2023/03/28 00:37:06;;;;;;;;;;;;;;;5.81;71.46;99264.11;107607;1254;110008;-61
2023/03/28 00:39:34;;;;;;;;;;;;;;;5.67;71.53;99267.73;107657;1253;107653;-62
2023/03/28 00:42:02;;;;;;;;;;;;;;;5.49;71.86;99278.54;107650;1254;98020;-60
2023/03/28 00:44:49;;;;;;;;;;;;;;;5.37;72.02;99284.42;107603;1254;98017;-62
2023/03/28 00:47:26;;;;;;;;;;;;;;;5.25;72.20;99293.88;107643;1253;112458;-60
2023/03/28 00:50:04;;;;;;;;;;;;;;;5.17;72.70;99292.67;107680;1253;110134;-61
2023/03/28 00:52:38;;;;;;;;;;;;;;;4.98;72.80;99298.02;107666;1254;109034;-61
2023/03/28 00:55:11;;;;;;;;;;;;;;;4.93;73.18;99299.57;107622;1254;97810;-62
2023/03/28 00:57:40;;;;;;;;;;;;;;;4.82;73.10;99301.45;107707;1253;97718;-62
2023/03/28 01:00:11;;;;;;;;;;;;;;;4.73;72.63;99303.09;107637;1254;111761;-60
2023/03/28 01:02:40;;;;;;;;;;;;;;;4.63;73.14;99306.41;107658;1253;110103;-61
2023/03/28 01:05:11;;;;;;;;;;;;;;;4.53;73.47;99304.32;107533;1252;108674;-60
2023/03/28 01:07:44;;;;;;;;;;;;;;;4.45;73.42;99302.64;107505;1253;97836;-61
2023/03/28 01:10:15;;;;;;;;;;;;;;;4.34;73.67;99304.36;107619;1253;97922;-61
2023/03/28 01:12:44;;;;;;;;;;;;;;;4.22;73.87;99316.29;107622;1253;112281;-60
2023/03/28 01:15:18;;;;;;;;;;;;;;;4.16;74.29;99318.80;107634;1253;108837;-59
2023/03/28 01:17:53;;;;;;;;;;;;;;;4.07;74.77;99319.91;107612;1253;108966;-60
2023/03/28 01:20:41;;;;;;;;;;;;;;;3.99;74.91;99314.43;107694;1253;97842;-59
2023/03/28 01:23:24;;;;;;;;;;;;;;;3.90;74.70;99322.20;107655;1253;97806;-60
2023/03/28 01:26:05;;;;;;;;;;;;;;;3.86;74.90;99322.02;107628;1252;112343;-61
2023/03/28 01:28:40;;;;;;;;;;;;;;;3.84;74.70;99319.37;107642;1256;108128;-61
2023/03/28 01:31:20;;;;;;;;;;;;;;;3.86;75.07;99318.11;107622;1253;107217;-61
2023/03/28 01:34:17;;;;;;;;;;;;;;;3.91;74.40;99317.37;107504;1254;97835;-60
2023/03/28 01:37:05;;;;;;;;;;;;;;;3.92;74.51;99324.23;107614;1256;97726;-60
2023/03/28 01:39:44;;;;;;;;;;;;;;;3.85;74.20;99321.37;107625;1254;111047;-59
2023/03/28 01:42:20;;;;;;;;;;;;;;;3.83;73.96;99315.16;107625;1254;108353;-61
2023/03/28 01:44:55;;;;;;;;;;;;;;;3.82;74.03;99322.33;107663;1252;108058;-61
2023/03/28 01:47:35;;;;;;;;;;;;;;;3.85;74.10;99316.61;107518;1254;97851;-61
2023/03/28 01:50:17;;;;;;;;;;;;;;;3.87;74.02;99320.16;107680;1254;97835;-61
2023/03/28 01:53:09;;;;;;;;;;;;;;;3.85;73.49;99323.39;107640;1253;111766;-60
2023/03/28 01:55:47;;;;;;;;;;;;;;;3.80;73.09;99327.35;107483;1253;109872;-59
2023/03/28 01:58:42;;;;;;;;;;;;;;;3.81;73.56;99321.73;107594;1254;109596;-61
2023/03/28 02:01:21;;;;;;;;;;;;;;;3.87;73.06;99317.48;107547;1256;97849;-60
2023/03/28 02:03:57;;;;;;;;;;;;;;;3.89;72.78;99327.42;107651;1253;97820;-60
2023/03/28 02:06:37;;;;;;;;;;;;;;;3.88;72.16;99329.14;107633;1253;110848;-60
2023/03/28 02:09:12;;;;;;;;;;;;;;;3.82;72.00;99327.20;107657;1255;109849;-61
2023/03/28 02:12:02;;;;;;;;;;;;;;;3.77;72.10;99327.58;107624;1254;108377;-61
2023/03/28 02:15:03;;;;;;;;;;;;;;;3.75;71.99;99333.20;107644;1254;97736;-60
2023/03/28 02:17:34;;;;;;;;;;;;;;;3.77;72.27;99335.15;107698;1254;97688;-61
2023/03/28 02:20:27;;;;;;;;;;;;;;;3.75;71.81;99334.95;107572;1252;111795;-60
2023/03/28 02:23:28;;;;;;;;;;;;;;;3.72;71.57;99346.95;107708;1252;109103;-62
2023/03/28 02:26:21;;;;;;;;;;;;;;;3.68;71.78;99340.89;107384;1254;108653;-61
2023/03/28 02:29:09;;;;;;;;;;;;;;;3.65;71.87;99361.90;107627;1255;98012;-60
2023/03/28 02:31:49;;;;;;;;;;;;;;;3.54;72.27;99347.15;107677;1255;97724;-61
2023/03/28 02:34:18;;;;;;;;;;;;;;;3.49;72.70;99341.73;107731;1253;111222;-60
2023/03/28 02:37:03;;;;;;;;;;;;;;;3.50;72.74;99344.71;107691;1254;110257;-60
2023/03/28 02:39:43;;;;;;;;;;;;;;;3.48;72.46;99350.03;107661;1256;107662;-61
2023/03/28 02:42:14;;;;;;;;;;;;;;;3.44;72.88;99356.11;107621;1253;97822;-62
2023/03/28 02:44:52;;;;;;;;;;;;;;;3.43;72.79;99349.66;107549;1257;97746;-61
2023/03/28 02:47:20;;;;;;;;;;;;;;;3.41;72.71;99359.25;107669;1253;111939;-60
2023/03/28 02:49:49;;;;;;;;;;;;;;;3.36;72.57;99360.30;107684;1252;109778;-60
2023/03/28 02:52:22;;;;;;;;;;;;;;;3.34;72.74;99361.02;107666;1253;107181;-61
2023/03/28 02:54:56;;;;;;;;;;;;;;;3.32;72.50;99357.28;107642;1255;97836;-62
2023/03/28 02:57:51;;;;;;;;;;;;;;;3.30;72.40;99361.52;107518;1254;97893;-60
2023/03/28 03:00:19;;;;;;;;;;;;;;;3.30;72.66;99357.14;107542;1254;112152;-62
2023/03/28 03:02:50;;;;;;;;;;;;;;;3.32;72.30;99359.42;107656;1253;109805;-60
2023/03/28 03:05:19;;;;;;;;;;;;;;;3.35;72.21;99358.10;107698;1254;107680;-60
2023/03/28 03:07:48;;;;;;;;;;;;;;;3.32;72.12;99368.77;107530;1254;97732;-61
2023/03/28 03:10:17;;;;;;;;;;;;;;;3.29;72.22;99370.95;107644;1254;97909;-61
2023/03/28 03:12:47;;;;;;;;;;;;;;;3.28;72.22;99365.19;107639;1251;111612;-63
2023/03/28 03:15:15;;;;;;;;;;;;;;;3.32;72.44;99372.68;107659;1253;110078;-61
2023/03/28 03:17:57;;;;;;;;;;;;;;;3.32;72.25;99371.98;107589;1252;107780;-60
2023/03/28 03:20:32;;;;;;;;;;;;;;;3.31;71.83;99377.41;107622;1253;97823;-60
2023/03/28 03:23:02;;;;;;;;;;;;;;;3.33;72.02;99374.20;107551;1252;97755;-61
2023/03/28 03:25:33;;;;;;;;;;;;;;;3.36;71.43;99385.34;107502;1254;112519;-60
2023/03/28 03:28:31;;;;;;;;;;;;;;;3.33;71.13;99384.17;107437;1254;109005;-59
2023/03/28 03:31:01;;;;;;;;;;;;;;;3.29;71.07;99388.16;107616;1253;108668;-60
2023/03/28 03:34:06;;;;;;;;;;;;;;;3.27;71.07;99394.02;107557;1254;98420;-61
2023/03/28 03:36:39;;;;;;;;;;;;;;;3.24;71.17;99394.77;107687;1253;97814;-62
2023/03/28 03:39:08;;;;;;;;;;;;;;;3.22;71.34;99394.08;107744;1254;111659;-61
2023/03/28 03:41:36;;;;;;;;;;;;;;;3.19;71.01;99401.59;107694;1253;110175;-61
2023/03/28 03:44:06;;;;;;;;;;;;;;;3.17;70.61;99406.86;107633;1253;108726;-60
2023/03/28 03:46:34;;;;;;;;;;;;;;;3.19;70.70;99421.98;107556;1254;97838;-61
2023/03/28 03:49:03;;;;;;;;;;;;;;;3.19;70.39;99416.61;107559;1254;97727;-62
2023/03/28 03:51:33;;;;;;;;;;;;;;;3.17;69.69;99426.02;107554;1257;111652;-60
2023/03/28 03:54:01;;;;;;;;;;;;;;;3.16;69.74;99430.88;107684;1252;110367;-61
2023/03/28 03:56:37;;;;;;;;;;;;;;;3.12;69.52;99447.80;107528;1257;107729;-60
2023/03/28 03:59:06;;;;;;;;;;;;;;;3.07;69.54;99449.98;107556;1253;97947;-61
2023/03/28 04:01:38;;;;;;;;;;;;;;;3.01;69.61;99457.18;107631;1254;97693;-62
2023/03/28 04:04:26;;;;;;;;;;;;;;;2.97;69.89;99456.77;107668;1254;111742;-62
2023/03/28 04:07:11;;;;;;;;;;;;;;;2.94;69.61;99468.35;107639;1253;109882;-60
2023/03/28 04:09:39;;;;;;;;;;;;;;;2.90;69.45;99470.05;107674;1254;107113;-61
2023/03/28 04:12:10;;;;;;;;;;;;;;;2.90;69.00;99471.88;107663;1254;97829;-61
2023/03/28 04:14:55;;;;;;;;;;;;;;;2.88;68.96;99487.08;107674;1252;97838;-60
2023/03/28 04:17:49;;;;;;;;;;;;;;;2.88;68.77;99489.90;107683;1252;112072;-63
2023/03/28 04:20:30;;;;;;;;;;;;;;;2.89;68.29;99491.75;107564;1252;109934;-63
2023/03/28 04:23:08;;;;;;;;;;;;;;;2.89;68.47;99502.59;107655;1252;108302;-64
2023/03/28 04:25:40;;;;;;;;;;;;;;;2.90;68.53;99506.89;107543;1253;97876;-63
2023/03/28 04:28:19;;;;;;;;;;;;;;;2.94;68.30;99524.09;107644;1254;97816;-61
2023/03/28 04:31:15;;;;;;;;;;;;;;;2.90;67.87;99543.89;107590;1252;112294;-62
2023/03/28 04:34:24;;;;;;;;;;;;;;;2.88;67.74;99545.16;107478;1253;110450;-60
2023/03/28 04:37:07;;;;;;;;;;;;;;;2.86;67.34;99559.12;107662;1252;107616;-60
2023/03/28 04:39:52;;;;;;;;;;;;;;;2.82;67.06;99566.30;107674;1253;97861;-61
2023/03/28 04:42:50;;;;;;;;;;;;;;;2.78;66.85;99567.64;107528;1251;97821;-63
2023/03/28 04:45:25;;;;;;;;;;;;;;;2.77;67.34;99565.59;107639;1253;111755;-62
2023/03/28 04:47:54;;;;;;;;;;;;;;;2.75;66.57;99561.55;107601;1251;109731;-61
2023/03/28 04:50:23;;;;;;;;;;;;;;;2.76;66.79;99559.84;107593;1252;108145;-60
2023/03/28 04:52:51;;;;;;;;;;;;;;;2.79;66.68;99575.39;107534;1251;97960;-61
2023/03/28 04:55:20;;;;;;;;;;;;;;;2.74;66.73;99576.65;107653;1254;97797;-60
2023/03/28 04:57:49;;;;;;;;;;;;;;;2.73;66.35;99575.65;107638;1252;111655;-61
2023/03/28 05:00:22;;;;;;;;;;;;;;;2.73;66.23;99580.81;107646;1253;109753;-61
2023/03/28 05:03:05;;;;;;;;;;;;;;;2.70;65.80;99591.95;107669;1253;107822;-61
2023/03/28 05:05:40;;;;;;;;;;;;;;;2.68;65.68;99593.37;107638;1254;97883;-62
2023/03/28 05:08:15;;;;;;;;;;;;;;;2.68;65.22;99607.55;107604;1254;97822;-61
2023/03/28 05:10:43;;;;;;;;;;;;;;;2.67;65.54;99611.86;107712;1253;112092;-62
2023/03/28 05:13:12;;;;;;;;;;;;;;;2.64;65.13;99616.48;107615;1254;110327;-62
2023/03/28 05:15:46;;;;;;;;;;;;;;;2.57;64.84;99634.02;107633;1254;108508;-61
2023/03/28 05:18:35;;;;;;;;;;;;;;;2.48;65.41;99637.27;107491;1252;97812;-63
2023/03/28 05:21:04;;;;;;;;;;;;;;;2.46;65.64;99636.40;107576;1254;97852;-62
2023/03/28 05:23:32;;;;;;;;;;;;;;;2.44;65.25;99647.86;107583;1254;112297;-60
2023/03/28 05:26:02;;;;;;;;;;;;;;;2.40;65.28;99639.14;107562;1254;111779;-61
2023/03/28 05:28:33;;;;;;;;;;;;;;;2.38;65.52;99648.14;107634;1254;108539;-60
2023/03/28 05:31:02;;;;;;;;;;;;;;;2.37;65.38;99659.86;107635;1253;98007;-60
2023/03/28 05:33:31;;;;;;;;;;;;;;;2.37;64.89;99658.28;107689;1254;97931;-60
2023/03/28 05:36:03;;;;;;;;;;;;;;;2.35;65.06;99669.74;107624;1254;112251;-61
2023/03/28 05:38:33;;;;;;;;;;;;;;;2.36;64.95;99672.34;107543;1253;110407;-62
2023/03/28 05:41:10;;;;;;;;;;;;;;;2.39;65.05;99681.31;107450;1258;108146;-61
2023/03/28 05:43:39;;;;;;;;;;;;;;;2.44;64.80;99671.57;107623;1253;98159;-62
2023/03/28 05:46:13;;;;;;;;;;;;;;;2.47;64.75;99677.73;107584;1254;97834;-62
2023/03/28 05:49:04;;;;;;;;;;;;;;;2.51;64.78;99679.95;107593;1254;111670;-60
2023/03/28 05:51:33;;;;;;;;;;;;;;;2.51;64.27;99691.59;107688;1252;109445;-61
2023/03/28 05:54:01;;;;;;;;;;;;;;;2.47;64.38;99700.38;107691;1254;108645;-60
2023/03/28 05:56:34;;;;;;;;;;;;;;;2.44;64.39;99691.77;107607;1253;97806;-62
2023/03/28 05:59:03;;;;;;;;;;;;;;;2.45;64.38;99689.94;107673;1254;97764;-62
2023/03/28 06:01:38;;;;;;;;;;;;;;;2.49;64.33;99704.85;107680;1254;111833;-61
2023/03/28 06:04:09;;;;;;;;;;;;;;;2.52;64.18;99700.58;107591;1252;110064;-62
2023/03/28 06:06:38;;;;;;;;;;;;;;;2.53;63.90;99708.64;107614;1253;108763;-61
2023/03/28 06:09:07;;;;;;;;;;;;;;;2.54;64.09;99721.66;107669;1252;97831;-63
2023/03/28 06:11:46;;;;;;;;;;;;;;;2.53;63.88;99723.14;107701;1254;97842;-63
2023/03/28 06:14:14;;;;;;;;;;;;;;;2.56;63.83;99735.11;107655;1253;111660;-60
2023/03/28 06:16:43;;;;;;;;;;;;;;;2.53;63.82;99748.61;107621;1254;109058;-61
2023/03/28 06:19:12;;;;;;;;;;;;;;;2.52;63.79;99753.30;107653;1254;107420;-61
2023/03/28 06:21:49;;;;;;;;;;;;;;;2.55;64.11;99760.19;107629;1253;97708;-61
2023/03/28 06:24:17;;;;;;;;;;;;;;;2.58;63.95;99765.27;107510;1252;97720;-62
2023/03/28 06:26:46;;;;;;;;;;;;;;;2.58;63.42;99781.89;107648;1253;111876;-60
2023/03/28 06:29:18;;;;;;;;;;;;;;;2.48;63.56;99790.42;107613;1254;110212;-60
2023/03/28 06:31:49;;;;;;;;;;;;;;;2.40;63.90;99797.31;107653;1254;108657;-60
2023/03/28 06:34:19;;;;;;;;;;;;;;;2.37;64.04;99812.05;107670;1253;97893;-62
2023/03/28 06:36:55;;;;;;;;;;;;;;;2.37;64.04;99815.98;107654;1253;97815;-59
2023/03/28 06:39:26;;;;;;;;;;;;;;;2.36;63.39;99833.19;107642;1254;111889;-62
2023/03/28 06:41:58;;;;;;;;;;;;;;;2.34;63.24;99846.24;107673;1251;109640;-59
2023/03/28 06:44:34;;;;;;;;;;;;;;;2.28;62.80;99842.05;107588;1253;106617;-60
2023/03/28 06:47:05;;;;;;;;;;;;;;;2.26;63.18;99844.53;107586;1253;97937;-60
2023/03/28 06:49:34;;;;;;;;;;;;;;;2.21;62.74;99850.12;107661;1254;97893;-62
2023/03/28 06:52:28;;;;;;;;;;;;;;;2.13;63.07;99846.92;107416;1254;112334;-61
2023/03/28 06:54:57;;;;;;;;;;;;;;;2.13;63.47;99848.02;107702;1253;109603;-62
2023/03/28 06:57:26;;;;;;;;;;;;;;;2.16;63.59;99848.52;107628;1252;107805;-60
2023/03/28 07:00:06;;;;;;;;;;;;;;;2.20;63.70;99851.63;107654;1254;97898;-62
2023/03/28 07:02:54;;;;;;;;;;;;;;;2.22;63.24;99852.04;107582;1254;97818;-61
2023/03/28 07:05:23;;;;;;;;;;;;;;;2.21;63.24;99861.29;107628;1254;112274;-61
2023/03/28 07:07:51;;;;;;;;;;;;;;;2.23;63.09;99852.80;107552;1254;110285;-60
2023/03/28 07:10:19;;;;;;;;;;;;;;;2.27;63.30;99851.15;107596;1252;108165;-61
2023/03/28 07:12:48;;;;;;;;;;;;;;;2.27;62.65;99865.98;107603;1254;97899;-62
2023/03/28 07:15:18;;;;;;;;;;;;;;;2.21;63.05;99873.81;107671;1254;97825;-60
2023/03/28 07:17:47;;;;;;;;;;;;;;;2.13;62.97;99878.45;107639;1253;111896;-61
2023/03/28 07:20:15;;;;;;;;;;;;;;;2.03;63.25;99891.14;107653;1254;110172;-60
2023/03/28 07:22:44;;;;;;;;;;;;;;;1.95;62.94;99894.16;107488;1254;108803;-61
2023/03/28 07:25:12;;;;;;;;;;;;;;;1.90;62.95;99885.27;107510;1254;97907;-61
2023/03/28 07:27:41;;;;;;;;;;;;;;;1.89;62.91;99896.31;107614;1254;97806;-62
2023/03/28 07:30:10;;;;;;;;;;;;;;;1.89;63.12;99900.52;107614;1256;111744;-59
2023/03/28 07:32:38;;;;;;;;;;;;;;;1.90;62.68;99896.23;107620;1254;110308;-61
2023/03/28 07:35:24;;;;;;;;;;;;;;;1.95;62.61;99907.04;107651;1256;107972;-61
2023/03/28 07:37:52;;;;;;;;;;;;;;;2.03;62.70;99905.45;107649;1254;98494;-62
2023/03/28 07:40:35;;;;;;;;;;;;;;;2.11;62.08;99913.96;107670;1254;97812;-62
2023/03/28 07:43:04;;;;;;;;;;;;;;;2.12;61.51;99923.79;107627;1254;112199;-62
2023/03/28 07:45:33;;;;;;;;;;;;;;;2.11;61.21;99921.17;107646;1254;109705;-62
2023/03/28 07:48:02;;;;;;;;;;;;;;;2.15;61.30;99918.26;107630;1254;108237;-60
2023/03/28 07:50:31;;;;;;;;;;;;;;;2.20;61.35;99922.53;107679;1254;97809;-59
2023/03/28 07:53:00;;;;;;;;;;;;;;;2.35;61.44;99925.27;107652;1253;97815;-59
2023/03/28 07:55:32;;;;;;;;;;;;;;;2.48;60.73;99932.53;107700;1254;111811;-60
2023/03/28 07:58:15;;;;;;;;;;;;;;;2.69;60.11;99935.52;107693;1254;109030;-64
2023/03/28 08:00:45;;;;;;;;;;;;;;;2.86;59.57;99935.59;107641;1254;108748;-61
2023/03/28 08:03:37;;;;;;;;;;;;;;;2.97;58.62;99947.55;107640;1254;98489;-62
2023/03/28 08:06:08;;;;;;;;;;;;;;;3.11;58.53;99949.08;107677;1254;97816;-61
2023/03/28 08:08:56;;;;;;;;;;;;;;;3.25;57.12;99962.25;107608;1252;111806;-63
2023/03/28 08:11:34;;;;;;;;;;;;;;;3.35;55.99;99956.98;107636;1254;110731;-62
2023/03/28 08:14:04;;;;;;;;;;;;;;;3.40;55.49;99958.02;107671;1256;108619;-61
2023/03/28 08:16:32;;;;;;;;;;;;;;;3.45;55.54;99959.77;107605;1254;97983;-62
2023/03/28 08:19:02;;;;;;;;;;;;;;;3.50;54.99;99961.41;107644;1254;97815;-61
2023/03/28 08:22:01;;;;;;;;;;;;;;;3.79;55.86;99969.75;107666;1253;110999;-62
2023/03/28 08:24:31;;;;;;;;;;;;;;;4.01;55.35;99970.48;107643;1254;109216;-62
2023/03/28 08:27:15;;;;;;;;;;;;;;;4.09;55.00;99974.30;107618;1254;107548;-62
2023/03/28 08:29:45;;;;;;;;;;;;;;;4.20;54.68;99994.98;107661;1256;97828;-61
2023/03/28 08:32:14;;;;;;;;;;;;;;;4.12;53.16;99997.34;107663;1256;97857;-60
2023/03/28 08:34:42;;;;;;;;;;;;;;;3.98;53.73;99998.34;107624;1256;112376;-61
2023/03/28 08:37:15;;;;;;;;;;;;;;;3.94;54.07;100011.99;107701;1254;109048;-61
2023/03/28 08:39:46;;;;;;;;;;;;;;;3.77;53.48;100011.61;107631;1254;108420;-62
2023/03/28 08:42:44;;;;;;;;;;;;;;;3.75;53.81;100005.54;107619;1254;97836;-62
2023/03/28 08:45:23;;;;;;;;;;;;;;;3.73;53.80;100024.30;107125;1254;97840;-61
2023/03/28 08:48:06;;;;;;;;;;;;;;;3.64;53.88;100047.10;107619;1254;111109;-61
2023/03/28 08:50:54;;;;;;;;;;;;;;;3.50;53.81;100040.80;107497;1254;109895;-62
2023/03/28 08:53:44;;;;;;;;;;;;;;;3.50;53.90;100044.04;107565;1256;108619;-61
2023/03/28 08:56:14;;;;;;;;;;;;;;;3.58;53.86;100038.46;107608;1253;97899;-62
2023/03/28 08:58:50;;;;;;;;;;;;;;;3.62;53.84;100051.00;107608;1254;97986;-61
2023/03/28 09:01:21;;;;;;;;;;;;;;;3.56;53.49;100055.44;107661;1253;111551;-62
2023/03/28 09:03:49;;;;;;;;;;;;;;;3.54;53.48;100051.67;107685;1254;110148;-61
2023/03/28 09:06:28;;;;;;;;;;;;;;;3.53;53.84;100060.45;107641;1255;108041;-62
2023/03/28 09:09:15;;;;;;;;;;;;;;;3.54;52.87;100064.11;107593;1254;97992;-62
2023/03/28 09:12:04;;;;;;;;;;;;;;;3.52;52.40;100062.13;107523;1259;98156;-62
2023/03/28 09:14:33;;;;;;;;;;;;;;;3.54;52.42;100072.27;107621;1254;111272;-61
2023/03/28 09:17:07;;;;;;;;;;;;;;;3.50;52.88;100086.02;107590;1254;109146;-61
2023/03/28 09:19:53;;;;;;;;;;;;;;;3.49;52.40;100090.02;107606;1254;108085;-63
2023/03/28 09:22:43;;;;;;;;;;;;;;;3.53;52.11;100083.70;107616;1254;97908;-62
2023/03/28 09:25:31;;;;;;;;;;;;;;;3.57;51.56;100083.95;107648;1254;97815;-62
2023/03/28 09:28:18;;;;;;;;;;;;;;;3.72;51.74;100082.52;107649;1254;111966;-61
2023/03/28 09:30:49;;;;;;;;;;;;;;;3.79;51.49;100078.45;107706;1254;108839;-62
2023/03/28 09:33:26;;;;;;;;;;;;;;;3.99;51.55;100085.18;107602;1254;107890;-63
2023/03/28 09:35:58;;;;;;;;;;;;;;;4.06;50.17;100089.34;107513;1254;97911;-61
2023/03/28 09:38:34;;;;;;;;;;;;;;;4.18;50.08;100076.41;107606;1254;97816;-61
2023/03/28 09:41:06;;;;;;;;;;;;;;;4.33;48.91;100083.86;107610;1255;112325;-62
2023/03/28 09:43:46;;;;;;;;;;;;;;;4.55;48.58;100078.67;107665;1255;110191;-61
2023/03/28 09:46:23;;;;;;;;;;;;;;;5.06;47.82;100079.69;107658;1254;108646;-61
2023/03/28 09:49:16;;;;;;;;;;;;;;;5.19;46.46;100080.09;107630;1254;97828;-62
2023/03/28 09:51:45;;;;;;;;;;;;;;;5.16;45.48;100092.04;107641;1254;97934;-61
2023/03/28 09:54:14;;;;;;;;;;;;;;;5.59;45.40;100087.49;107576;1254;111792;-61
2023/03/28 09:56:44;;;;;;;;;;;;;;;5.99;44.85;100079.00;107590;1254;109732;-63
2023/03/28 09:59:25;;;;;;;;;;;;;;;6.04;44.63;100083.04;107607;1254;108498;-62
2023/03/28 10:01:59;;;;;;;;;;;;;;;6.35;44.53;100082.77;107699;1255;97909;-61
2023/03/28 10:04:38;;;;;;;;;;;;;;;6.50;43.81;100091.66;106880;1251;979043;-61
2023/03/28 10:07:47;;;;;;;;;;;;;;;6.34;42.95;100102.96;107551;1254;111975;-63
2023/03/28 10:10:23;;;;;;;;;;;;;;;5.94;43.34;100117.51;107499;1254;109786;-62
2023/03/28 10:13:05;;;;;;;;;;;;;;;6.13;43.88;100110.13;107616;1253;108266;-61
2023/03/28 10:15:41;;;;;;;;;;;;;;;6.13;43.20;100123.49;107565;1254;97835;-63
2023/03/28 10:18:30;;;;;;;;;;;;;;;6.24;42.54;100115.69;107584;1254;97821;-63
2023/03/28 10:21:22;;;;;;;;;;;;;;;6.65;42.01;100119.67;107687;1254;111591;-63
2023/03/28 10:24:06;;;;;;;;;;;;;;;6.67;41.77;100117.02;107647;1256;109732;-61
2023/03/28 10:26:35;;;;;;;;;;;;;;;6.58;41.91;100132.34;107603;1254;108500;-62
2023/03/28 10:29:06;;;;;;;;;;;;;;;6.50;41.47;100125.34;107657;1254;97814;-62
2023/03/28 10:31:37;;;;;;;;;;;;;;;6.75;41.71;100106.14;107666;1256;97813;-62
2023/03/28 10:34:28;;;;;;;;;;;;;;;6.90;41.04;100113.45;107651;1254;113067;-62
2023/03/28 10:37:02;;;;;;;;;;;;;;;6.86;41.08;100121.27;107648;1254;108977;-63
2023/03/28 10:39:56;;;;;;;;;;;;;;;6.83;41.69;100136.13;107635;1254;108149;-62
2023/03/28 10:42:51;;;;;;;;;;;;;;;6.78;41.43;100136.24;107642;1254;97821;-61
2023/03/28 10:45:49;;;;;;;;;;;;;;;7.20;40.81;100146.44;107640;1257;97867;-62
2023/03/28 10:48:36;;;;;;;;;;;;;;;7.54;39.63;100135.05;107594;1257;111201;-62
2023/03/28 10:51:14;;;;;;;;;;;;;;;7.24;39.45;100147.59;107615;1254;109498;-62
2023/03/28 10:53:49;;;;;;;;;;;;;;;7.03;39.76;100148.45;107579;1259;107684;-62
2023/03/28 10:56:21;;;;;;;;;;;;;;;7.00;39.62;100147.97;107717;1255;97807;-62
2023/03/28 10:59:11;;;;;;;;;;;;;;;7.12;39.44;100146.72;107621;1256;97806;-60
2023/03/28 11:01:54;;;;;;;;;;;;;;;7.53;39.21;100136.67;107650;1255;110702;-63
2023/03/28 11:04:35;;;;;;;;;;;;;;;7.89;38.58;100139.19;107706;1254;110086;-62
2023/03/28 11:07:11;;;;;;;;;;;;;;;8.56;37.39;100129.30;107665;1254;107711;-64
2023/03/28 11:10:09;;;;;;;;;;;;;;;9.22;37.38;100133.93;107476;1257;97835;-62
2023/03/28 11:12:56;;;;;;;;;;;;;;;9.97;36.29;100124.66;107622;1254;97918;-62
2023/03/28 11:15:48;;;;;;;;;;;;;;;10.88;34.51;100121.55;107691;1254;111184;-62
2023/03/28 11:18:29;;;;;;;;;;;;;;;11.36;32.37;100139.88;107614;1257;109711;-61
2023/03/28 11:20:59;;;;;;;;;;;;;;;11.19;31.81;100140.76;107681;1255;108796;-62
2023/03/28 11:23:34;;;;;;;;;;;;;;;10.58;32.48;100158.25;107476;1254;97905;-62
2023/03/28 11:26:27;;;;;;;;;;;;;;;10.66;32.53;100153.92;107632;1257;97849;-63
2023/03/28 11:29:40;;;;;;;;;;;;;;;10.25;32.78;100180.05;107691;1256;111866;-62
2023/03/28 11:32:18;;;;;;;;;;;;;;;10.12;32.78;100197.81;107660;1254;109806;-64
2023/03/28 11:35:06;;;;;;;;;;;;;;;9.45;33.18;100209.65;107599;1255;108295;-62
2023/03/28 11:37:38;;;;;;;;;;;;;;;9.74;33.42;100198.52;107620;1254;97999;-62
2023/03/28 11:40:35;;;;;;;;;;;;;;;10.02;33.35;100202.89;107649;1256;97816;-63
2023/03/28 11:43:12;;;;;;;;;;;;;;;9.64;32.96;100210.20;107709;1254;111852;-63
2023/03/28 11:45:46;;;;;;;;;;;;;;;9.21;32.77;100220.60;107383;1255;110139;-62
2023/03/28 11:48:41;;;;;;;;;;;;;;;8.76;32.74;100235.34;107643;1256;108365;-64
2023/03/28 11:51:46;;;;;;;;;;;;;;;8.64;33.15;100240.14;107637;1255;97717;-65
2023/03/28 11:54:16;;;;;;;;;;;;;;;8.96;33.02;100222.16;107302;1255;97806;-63
2023/03/28 11:56:45;;;;;;;;;;;;;;;9.47;32.82;100227.29;107686;1256;111245;-62
2023/03/28 11:59:24;;;;;;;;;;;;;;;9.89;31.23;100228.77;107697;1254;109575;-63
2023/03/28 12:01:55;;;;;;;;;;;;;;;9.93;30.64;100238.50;107606;1255;109256;-62
2023/03/28 12:04:29;;;;;;;;;;;;;;;10.13;30.76;100247.66;107483;1254;97703;-63
2023/03/28 12:07:13;;;;;;;;;;;;;;;9.78;30.23;100253.98;107704;1254;97856;-62
2023/03/28 12:09:47;;;;;;;;;;;;;;;9.22;30.49;100273.29;107638;1256;112360;-63
2023/03/28 12:12:20;;;;;;;;;;;;;;;8.93;30.93;100283.87;107585;1260;109331;-62
2023/03/28 12:15:12;;;;;;;;;;;;;;;8.87;31.09;100281.05;107554;1254;107644;-62
2023/03/28 12:17:53;;;;;;;;;;;;;;;8.73;31.59;100274.27;107557;1254;97833;-63
2023/03/28 12:20:35;;;;;;;;;;;;;;;9.08;31.55;100285.14;107675;1255;97909;-63
2023/03/28 12:23:14;;;;;;;;;;;;;;;9.18;30.33;100277.23;107651;1254;111437;-62
2023/03/28 12:26:13;;;;;;;;;;;;;;;9.24;30.43;100283.79;107721;1256;109361;-62
2023/03/28 12:28:50;;;;;;;;;;;;;;;10.04;29.80;100278.27;107688;1253;108049;-63
2023/03/28 12:31:27;;;;;;;;;;;;;;;10.10;28.98;100278.98;107588;1257;97819;-63
2023/03/28 12:34:09;;;;;;;;;;;;;;;9.94;29.02;100275.05;107705;1254;97893;-63
2023/03/28 12:37:10;;;;;;;;;;;;;;;10.30;29.87;100270.81;107639;1255;111675;-61
2023/03/28 12:39:39;;;;;;;;;;;;;;;10.78;29.30;100275.73;107613;1257;109499;-63
2023/03/28 12:42:18;;;;;;;;;;;;;;;11.02;28.60;100288.79;107570;1253;108030;-63
2023/03/28 12:44:51;;;;;;;;;;;;;;;11.70;27.94;100282.68;107629;1254;97839;-62
2023/03/28 12:47:23;;;;;;;;;;;;;;;12.28;26.96;100274.02;107690;1255;97845;-63
2023/03/28 12:49:58;;;;;;;;;;;;;;;12.78;25.99;100283.80;107718;1256;110989;-62
2023/03/28 12:52:31;;;;;;;;;;;;;;;12.99;24.62;100291.30;107593;1256;109631;-64
2023/03/28 12:55:02;;;;;;;;;;;;;;;13.35;25.10;100272.27;107592;1254;108951;-64
2023/03/28 12:57:39;;;;;;;;;;;;;;;13.90;24.30;100285.85;107678;1254;97701;-62
2023/03/28 13:00:20;;;;;;;;;;;;;;;14.40;23.67;100287.05;107664;1255;97820;-64
2023/03/28 13:03:15;;;;;;;;;;;;;;;14.58;23.06;100285.55;107549;1254;112250;-64
2023/03/28 13:05:57;;;;;;;;;;;;;;;14.78;22.96;100280.77;107608;1254;109665;-64
2023/03/28 13:08:29;;;;;;;;;;;;;;;15.43;22.28;100282.90;107688;1254;108802;-63
2023/03/28 13:10:58;;;;;;;;;;;;;;;15.58;22.32;100280.59;107618;1256;97994;-63
2023/03/28 13:13:29;;;;;;;;;;;;;;;15.97;21.34;100278.09;107631;1254;97812;-65
2023/03/28 13:16:15;;;;;;;;;;;;;;;15.90;20.28;100284.70;107684;1255;110321;-64
2023/03/28 13:18:47;;;;;;;;;;;;;;;16.15;20.85;100286.77;107622;1254;109357;-64
2023/03/28 13:21:40;;;;;;;;;;;;;;;16.54;20.39;100275.91;107622;1256;107871;-64
2023/03/28 13:24:24;;;;;;;;;;;;;;;16.63;20.34;100283.09;107683;1253;98536;-63
2023/03/28 13:26:53;;;;;;;;;;;;;;;17.22;20.27;100281.86;107668;1253;97730;-62